Time;durP1;ratioP1;P1;durP2;ratioP2;P2;SDS_P1;SDS_P2;PMS_P1;PMS_P2;Temp;Humidity;BMP_temperature;BMP_pressure;BME280_temperature;BME280_humidity;BME280_pressure;Samples;Min_cycle;Max_cycle;Signal;HPM_P1;HPM_P2
2023/01/04 00:01:40;;;;;;;8.38;6.18;;;8.10;75.30;;;;;;5051400;28;20064;-58
2023/01/04 00:04:06;;;;;;;6.70;5.43;;;8.10;75.10;;;;;;5050378;28;20049;-57
2023/01/04 00:06:32;;;;;;;7.47;5.80;;;8.10;75.00;;;;;;5044922;28;20475;-58
2023/01/04 00:08:57;;;;;;;7.72;5.60;;;8.00;74.80;;;;;;5046015;28;20025;-58
2023/01/04 00:11:23;;;;;;;6.22;5.22;;;8.00;74.90;;;;;;5040889;28;20029;-66
2023/01/04 00:13:54;;;;;;;6.47;5.50;;;8.00;74.90;;;;;;5035386;28;20025;-67
2023/01/04 00:16:23;;;;;;;7.88;5.53;;;8.00;75.10;;;;;;5044728;28;20033;-54
2023/01/04 00:18:50;;;;;;;6.20;5.20;;;8.00;75.10;;;;;;5051610;28;20122;-53
2023/01/04 00:21:19;;;;;;;6.00;5.25;;;8.00;74.90;;;;;;5033065;28;20041;-59
2023/01/04 00:23:47;;;;;;;7.75;5.28;;;7.90;74.90;;;;;;5030887;28;20029;-58
2023/01/04 00:26:19;;;;;;;6.63;5.03;;;7.90;74.80;;;;;;5044658;28;20033;-66
2023/01/04 00:28:46;;;;;;;6.45;5.30;;;7.90;74.80;;;;;;5043832;28;20033;-67
2023/01/04 00:31:15;;;;;;;7.03;5.07;;;7.80;74.70;;;;;;5040779;28;20357;-60
2023/01/04 00:33:41;;;;;;;6.40;5.18;;;7.80;74.80;;;;;;5031619;28;20032;-59
2023/01/04 00:36:12;;;;;;;6.78;5.28;;;7.80;74.90;;;;;;5048841;28;20036;-68
2023/01/04 00:38:39;;;;;;;5.88;5.20;;;7.80;74.90;;;;;;5050418;28;20041;-66
2023/01/04 00:41:06;;;;;;;6.75;5.20;;;7.80;75.10;;;;;;5052343;28;20044;-66
2023/01/04 00:43:32;;;;;;;6.57;5.35;;;7.80;75.20;;;;;;5043334;28;20033;-62
2023/01/04 00:45:57;;;;;;;6.82;5.18;;;7.80;75.30;;;;;;5051496;28;20037;-58
2023/01/04 00:48:23;;;;;;;6.75;5.57;;;7.80;75.30;;;;;;5049704;28;20394;-58
2023/01/04 00:50:49;;;;;;;8.43;6.18;;;7.80;75.30;;;;;;5037620;28;20033;-58
2023/01/04 00:53:17;;;;;;;7.00;5.57;;;7.80;75.30;;;;;;5032243;28;20041;-58
2023/01/04 00:55:43;;;;;;;7.22;5.80;;;7.70;75.40;;;;;;5038198;28;20052;-58
2023/01/04 00:58:09;;;;;;;8.05;6.20;;;7.70;75.50;;;;;;5035620;28;20383;-58
2023/01/04 01:00:35;;;;;;;7.40;5.85;;;7.70;75.50;;;;;;5040922;28;20040;-58
2023/01/04 01:03:01;;;;;;;5.70;5.10;;;7.60;75.60;;;;;;5036676;28;20053;-57
2023/01/04 01:05:27;;;;;;;8.02;5.32;;;7.60;75.60;;;;;;5032363;28;20026;-58
2023/01/04 01:07:52;;;;;;;8.18;5.32;;;7.60;75.70;;;;;;5032143;28;20464;-58
2023/01/04 01:10:18;;;;;;;6.15;5.00;;;7.60;75.60;;;;;;5034251;28;20087;-64
2023/01/04 01:12:44;;;;;;;8.25;5.38;;;7.60;75.70;;;;;;5032559;28;20037;-64
2023/01/04 01:15:10;;;;;;;5.93;5.18;;;7.60;75.60;;;;;;5032109;28;20033;-67
2023/01/04 01:17:36;;;;;;;7.68;5.40;;;7.60;75.50;;;;;;5040289;28;20484;-67
2023/01/04 01:20:03;;;;;;;4.80;4.30;;;7.50;75.60;;;;;;5043131;28;20036;-68
2023/01/04 01:22:29;;;;;;;6.10;5.20;;;7.50;75.40;;;;;;5034600;28;20368;-58
2023/01/04 01:24:55;;;;;;;6.78;5.15;;;7.50;75.30;;;;;;5035544;28;20099;-58
2023/01/04 01:27:21;;;;;;;6.00;5.20;;;7.50;75.30;;;;;;5034211;28;21608;-58
2023/01/04 01:29:46;;;;;;;7.18;5.10;;;7.50;75.20;;;;;;5041944;28;20025;-58
2023/01/04 01:32:12;;;;;;;6.82;5.50;;;7.50;75.10;;;;;;5038023;28;20171;-58
2023/01/04 01:34:38;;;;;;;6.30;5.10;;;7.40;75.00;;;;;;5041710;28;20044;-57
2023/01/04 01:37:03;;;;;;;6.88;4.95;;;7.40;74.90;;;;;;5036074;28;20855;-67
2023/01/04 01:39:29;;;;;;;6.25;5.13;;;7.40;74.60;;;;;;5046957;28;20090;-66
2023/01/04 01:41:55;;;;;;;5.55;4.90;;;7.40;74.50;;;;;;5036699;28;20105;-58
2023/01/04 01:44:45;;;;;;;6.82;5.45;;;7.40;74.50;;;;;;5044323;28;20428;-58
2023/01/04 01:47:12;;;;;;;7.40;5.28;;;7.30;74.20;;;;;;5039885;28;20041;-57
2023/01/04 01:49:40;;;;;;;5.97;4.65;;;7.30;74.10;;;;;;5046505;28;20477;-58
2023/01/04 01:52:17;;;;;;;6.32;5.32;;;7.20;74.20;;;;;;5035685;28;20026;-58
2023/01/04 01:54:57;;;;;;;5.97;4.95;;;7.20;74.40;;;;;;5038221;28;20087;-60
2023/01/04 01:57:27;;;;;;;5.35;4.80;;;7.20;74.40;;;;;;5027525;28;20095;-58
2023/01/04 01:59:57;;;;;;;6.05;4.70;;;7.10;74.60;;;;;;5033138;28;20431;-58
2023/01/04 02:02:22;;;;;;;6.45;5.15;;;7.10;74.80;;;;;;5036192;28;20048;-65
2023/01/04 02:04:49;;;;;;;5.70;5.05;;;7.10;75.00;;;;;;5035653;28;20084;-67
2023/01/04 02:07:19;;;;;;;5.53;4.70;;;7.10;75.10;;;;;;5033624;28;20117;-67
2023/01/04 02:09:45;;;;;;;6.57;4.85;;;7.10;75.20;;;;;;5031952;28;20042;-67
2023/01/04 02:12:12;;;;;;;5.63;4.80;;;7.00;75.20;;;;;;5041471;28;20036;-67
2023/01/04 02:14:40;;;;;;;6.78;5.25;;;7.00;75.20;;;;;;5045528;28;20029;-66
2023/01/04 02:17:13;;;;;;;5.38;4.70;;;7.00;75.10;;;;;;5042533;28;20052;-57
2023/01/04 02:20:00;;;;;;;6.03;4.43;;;7.00;75.10;;;;;;5032226;28;20025;-57
2023/01/04 02:22:44;;;;;;;5.65;4.55;;;7.00;75.10;;;;;;5048257;28;20037;-58
2023/01/04 02:25:40;;;;;;;8.02;4.57;;;7.00;75.00;;;;;;5044710;28;20494;-58
2023/01/04 02:28:33;;;;;;;5.50;4.70;;;6.90;74.80;;;;;;5044070;28;20029;-59
2023/01/04 02:30:59;;;;;;;5.57;4.88;;;6.90;74.80;;;;;;5042892;28;20127;-53
2023/01/04 02:33:30;;;;;;;6.57;4.63;;;6.80;74.70;;;;;;5036563;28;20120;-55
2023/01/04 02:36:40;;;;;;;6.10;4.78;;;6.80;74.80;;;;;;5035864;28;20033;-66
2023/01/04 02:39:35;;;;;;;5.78;4.25;;;6.80;74.80;;;;;;5008230;28;20081;-67
2023/01/04 02:44:51;;;;;;;5.38;4.28;;;6.70;74.70;;;;;;5008175;28;20036;-53
2023/01/04 02:45:16;;;;;;;4.72;4.18;;;6.70;74.80;;;;;;5031900;28;20060;-53
2023/01/04 02:50:32;;;;;;;6.10;3.90;;;6.70;74.70;;;;;;5034102;28;20037;-58
2023/01/04 02:53:07;;;;;;;;;;;6.60;74.70;;;;;;5031303;28;20452;-58
2023/01/04 02:55:57;;;;;;;5.85;4.47;;;6.60;74.10;;;;;;5030966;28;19909;-58
2023/01/04 02:58:50;;;;;;;5.05;3.60;;;6.60;74.70;;;;;;5035614;28;20064;-59
2023/01/04 03:07:50;;;;;;;4.75;3.92;;;6.50;74.40;;;;;;5030717;28;20151;-58
2023/01/04 03:10:33;;;;;;;4.80;4.05;;;6.50;74.60;;;;;;5034181;28;20037;-58
2023/01/04 03:13:08;;;;;;;5.03;4.38;;;6.50;74.40;;;;;;5037882;28;20038;-53
2023/01/04 03:15:38;;;;;;;4.53;3.88;;;6.50;74.20;;;;;;5032647;28;20049;-56
2023/01/04 03:18:25;;;;;;;4.30;3.75;;;6.50;74.10;;;;;;5030593;28;20761;-55
2023/01/04 03:20:52;;;;;;;5.03;4.03;;;6.40;74.10;;;;;;5031142;28;20037;-59
2023/01/04 03:35:26;;;;;;;4.80;3.97;;;6.20;74.00;;;;;;5038572;28;20044;-53
2023/01/04 03:50:02;;;;;;;5.28;3.85;;;6.10;73.90;;;;;;5049849;28;20035;-67
2023/01/04 03:52:30;;;;;;;5.15;4.20;;;6.00;73.70;;;;;;5045028;28;20055;-60
2023/01/04 03:54:57;;;;;;;4.80;4.10;;;6.00;73.70;;;;;;5043241;28;20065;-60
2023/01/04 03:57:24;;;;;;;4.72;3.40;;;6.00;73.60;;;;;;5037881;28;20421;-66
2023/01/04 04:00:03;;;;;;;4.28;3.60;;;6.00;73.50;;;;;;5046078;28;20068;-68
2023/01/04 04:02:31;;;;;;;4.47;3.72;;;6.00;73.40;;;;;;5047008;28;20040;-58
2023/01/04 04:10:25;;;;;;;4.50;3.50;;;5.90;73.30;;;;;;5038148;28;20032;-57
2023/01/04 04:12:51;;;;;;;3.83;3.42;;;5.90;73.20;;;;;;5049084;28;20025;-57
2023/01/04 04:15:17;;;;;;;4.13;3.42;;;5.90;73.20;;;;;;5041942;28;20048;-58
2023/01/04 04:17:43;;;;;;;4.47;3.67;;;5.90;73.20;;;;;;5046903;28;20033;-56
2023/01/04 04:20:10;;;;;;;4.70;3.72;;;5.90;73.20;;;;;;5033949;28;20033;-57
2023/01/04 04:22:35;;;;;;;5.30;3.55;;;5.80;73.00;;;;;;5051443;28;20032;-58
2023/01/04 04:25:01;;;;;;;4.13;3.70;;;5.80;73.00;;;;;;5038860;28;20471;-58
2023/01/04 04:27:26;;;;;;;3.92;3.50;;;5.80;73.00;;;;;;5043513;28;20106;-57
2023/01/04 04:29:52;;;;;;;4.95;3.60;;;5.80;73.10;;;;;;5035909;28;20021;-58
2023/01/04 04:32:18;;;;;;;3.90;3.50;;;5.80;73.00;;;;;;5044612;28;20018;-67
2023/01/04 04:34:43;;;;;;;4.15;3.70;;;5.80;72.70;;;;;;5034849;28;20041;-66
2023/01/04 04:37:09;;;;;;;4.68;3.60;;;5.80;72.90;;;;;;5037868;28;20091;-60
2023/01/04 04:39:34;;;;;;;4.18;3.40;;;5.80;72.70;;;;;;5041446;28;20037;-66
2023/01/04 04:42:00;;;;;;;5.00;3.65;;;5.80;72.60;;;;;;5033862;28;20045;-67
2023/01/04 04:44:26;;;;;;;3.92;3.47;;;5.80;72.60;;;;;;5032823;28;20026;-67
2023/01/04 04:46:51;;;;;;;4.15;3.47;;;5.80;72.60;;;;;;5033170;28;20057;-68
2023/01/04 04:49:17;;;;;;;6.07;3.72;;;5.70;72.50;;;;;;5038879;28;20053;-66
2023/01/04 04:51:44;;;;;;;3.45;3.15;;;5.70;72.60;;;;;;5033914;28;20028;-58
2023/01/04 04:54:13;;;;;;;4.22;3.80;;;5.70;72.70;;;;;;5032045;28;20030;-59
2023/01/04 04:56:39;;;;;;;4.70;3.67;;;5.70;72.70;;;;;;5033876;28;20040;-52
2023/01/04 04:59:05;;;;;;;5.30;3.83;;;5.70;72.70;;;;;;5035311;28;20424;-55
2023/01/04 05:01:31;;;;;;;3.92;3.53;;;5.70;72.80;;;;;;5035325;28;20032;-57
2023/01/04 05:03:57;;;;;;;4.30;3.83;;;5.60;72.80;;;;;;5039340;28;20045;-58
2023/01/04 05:06:23;;;;;;;4.07;3.67;;;5.60;72.90;;;;;;5043218;28;20042;-58
2023/01/04 05:08:49;;;;;;;4.78;4.03;;;5.60;72.90;;;;;;5035784;28;20040;-58
2023/01/04 05:11:15;;;;;;;5.38;3.42;;;5.60;72.90;;;;;;5037380;28;20028;-60
2023/01/04 05:13:41;;;;;;;4.13;3.72;;;5.60;72.90;;;;;;5040587;28;20033;-60
2023/01/04 05:16:08;;;;;;;4.15;3.75;;;5.60;73.00;;;;;;5039021;28;20052;-57
2023/01/04 05:18:34;;;;;;;3.90;3.45;;;5.60;73.10;;;;;;5047328;28;20049;-57
2023/01/04 05:21:01;;;;;;;4.63;4.13;;;5.60;73.10;;;;;;5037370;28;20060;-57
2023/01/04 05:23:27;;;;;;;4.85;3.85;;;5.60;73.10;;;;;;5039017;28;20463;-57
2023/01/04 05:25:58;;;;;;;4.82;3.92;;;5.60;73.20;;;;;;5046886;28;20067;-57
2023/01/04 05:28:24;;;;;;;5.38;4.20;;;5.50;73.10;;;;;;5037851;28;20048;-58
2023/01/04 05:30:52;;;;;;;4.70;4.20;;;5.50;73.30;;;;;;5035438;28;20033;-58
2023/01/04 05:33:26;;;;;;;4.60;3.67;;;5.50;73.40;;;;;;5035115;28;20337;-58
2023/01/04 05:35:53;;;;;;;4.25;3.60;;;5.60;73.50;;;;;;5032166;28;20034;-57
2023/01/04 05:38:20;;;;;;;4.43;3.85;;;5.60;73.50;;;;;;5031762;28;20083;-58
2023/01/04 05:40:46;;;;;;;6.47;4.05;;;5.60;73.40;;;;;;5031813;28;20037;-58
2023/01/04 05:43:12;;;;;;;4.85;3.78;;;5.50;73.20;;;;;;5033918;28;20447;-57
2023/01/04 05:45:39;;;;;;;4.40;4.00;;;5.50;73.40;;;;;;5031135;28;20472;-67
2023/01/04 05:48:06;;;;;;;6.45;4.13;;;5.50;73.30;;;;;;5033691;28;20029;-68
2023/01/04 05:50:31;;;;;;;4.07;3.67;;;5.50;73.50;;;;;;5041628;28;20534;-68
2023/01/04 05:52:57;;;;;;;3.97;3.58;;;5.50;73.50;;;;;;5031934;28;20021;-67
2023/01/04 05:55:23;;;;;;;5.18;3.85;;;5.50;73.60;;;;;;5030546;28;20064;-58
2023/01/04 05:57:49;;;;;;;4.82;3.90;;;5.50;73.50;;;;;;5031967;28;20031;-56
2023/01/04 06:00:15;;;;;;;5.70;3.95;;;5.50;73.60;;;;;;5041657;28;20480;-64
2023/01/04 06:02:42;;;;;;;6.63;4.60;;;5.50;73.70;;;;;;5033224;28;20022;-62
2023/01/04 06:05:09;;;;;;;4.43;4.00;;;5.50;73.70;;;;;;5040544;28;20041;-67
2023/01/04 06:07:37;;;;;;;5.43;4.32;;;5.50;73.80;;;;;;5041023;28;20087;-66
2023/01/04 06:10:07;;;;;;;4.20;3.80;;;5.50;73.80;;;;;;5029829;28;20456;-68
2023/01/04 06:12:33;;;;;;;5.05;3.92;;;5.50;73.80;;;;;;5042346;28;20361;-58
2023/01/04 06:14:58;;;;;;;4.82;3.97;;;5.50;73.80;;;;;;5030633;28;20044;-57
2023/01/04 06:17:24;;;;;;;4.30;3.78;;;5.50;73.80;;;;;;5036921;28;20033;-59
2023/01/04 06:19:50;;;;;;;5.57;4.15;;;5.50;73.90;;;;;;5028422;28;20041;-57
2023/01/04 06:22:15;;;;;;;4.28;3.83;;;5.50;73.90;;;;;;5034386;28;20029;-69
2023/01/04 06:24:41;;;;;;;5.53;4.25;;;5.60;73.90;;;;;;5036184;28;20045;-66
2023/01/04 06:27:07;;;;;;;5.70;4.40;;;5.60;73.80;;;;;;5034681;28;20037;-69
2023/01/04 06:29:32;;;;;;;5.82;4.20;;;5.50;73.80;;;;;;5035400;28;20108;-67
2023/01/04 06:31:58;;;;;;;5.00;4.18;;;5.60;73.80;;;;;;5033815;28;20033;-60
2023/01/04 06:34:24;;;;;;;5.25;4.05;;;5.60;73.90;;;;;;5031226;28;20037;-59
2023/01/04 06:36:49;;;;;;;6.30;4.43;;;5.60;73.80;;;;;;5032717;28;20083;-69
2023/01/04 06:39:15;;;;;;;5.78;4.38;;;5.60;73.80;;;;;;5038926;28;20045;-68
2023/01/04 06:41:40;;;;;;;5.30;4.13;;;5.60;73.80;;;;;;5015887;28;20083;-57
2023/01/04 06:44:06;;;;;;;5.28;4.10;;;5.60;73.70;;;;;;5021502;28;20456;-57
2023/01/04 06:46:32;;;;;;;5.30;4.20;;;5.60;73.70;;;;;;5018333;28;20046;-56
2023/01/04 06:48:57;;;;;;;5.40;4.43;;;5.60;73.70;;;;;;5023529;28;20360;-58
2023/01/04 06:51:23;;;;;;;4.90;4.13;;;5.60;73.60;;;;;;5026061;28;20044;-54
2023/01/04 06:53:49;;;;;;;4.85;4.15;;;5.60;73.70;;;;;;5010072;28;20037;-54
2023/01/04 06:56:15;;;;;;;4.45;4.03;;;5.60;73.70;;;;;;5018967;28;20038;-50
2023/01/04 06:58:41;;;;;;;5.50;4.18;;;5.60;73.70;;;;;;5026657;28;20018;-56
2023/01/04 07:01:07;;;;;;;4.93;4.30;;;5.60;73.80;;;;;;5027042;28;20091;-52
2023/01/04 07:03:33;;;;;;;6.10;4.43;;;5.60;73.70;;;;;;5029674;28;20049;-54
2023/01/04 07:05:58;;;;;;;5.00;4.32;;;5.60;73.60;;;;;;5024727;28;20026;-52
2023/01/04 07:08:24;;;;;;;4.03;3.45;;;5.60;73.60;;;;;;5026966;28;20037;-52
2023/01/04 07:10:50;;;;;;;6.47;4.55;;;5.60;73.60;;;;;;5029007;28;20025;-55
2023/01/04 07:13:16;;;;;;;4.75;3.78;;;5.70;73.70;;;;;;5020986;28;20038;-58
2023/01/04 07:15:42;;;;;;;5.28;4.20;;;5.70;73.60;;;;;;5026586;28;20063;-54
2023/01/04 07:18:08;;;;;;;5.50;4.28;;;5.70;73.60;;;;;;5027319;28;20036;-56
2023/01/04 07:20:35;;;;;;;4.93;3.88;;;5.70;73.60;;;;;;5024143;28;20034;-58
2023/01/04 07:23:01;;;;;;;5.13;4.18;;;5.70;74.00;;;;;;5022932;28;20128;-54
2023/01/04 07:25:26;;;;;;;4.30;3.80;;;5.80;73.50;;;;;;5024310;28;20067;-54
2023/01/04 07:27:53;;;;;;;5.53;4.70;;;5.80;73.30;;;;;;5015134;28;20041;-51
2023/01/04 07:30:20;;;;;;;4.93;4.18;;;5.80;73.30;;;;;;5022127;28;20165;-55
2023/01/04 07:32:46;;;;;;;4.72;3.92;;;5.80;73.20;;;;;;5014683;28;20033;-53
2023/01/04 07:35:11;;;;;;;5.53;3.97;;;5.80;73.20;;;;;;5024293;28;20036;-54
2023/01/04 07:37:37;;;;;;;5.20;4.50;;;5.80;73.10;;;;;;5025574;28;20101;-57
2023/01/04 07:40:03;;;;;;;4.38;3.83;;;5.80;73.00;;;;;;5017131;28;20064;-52
2023/01/04 07:42:29;;;;;;;5.00;4.07;;;5.80;72.90;;;;;;5017969;28;20033;-58
2023/01/04 07:44:54;;;;;;;5.18;4.30;;;5.80;73.00;;;;;;5015909;28;20055;-51
2023/01/04 07:47:20;;;;;;;6.40;3.97;;;5.80;72.80;;;;;;5018767;28;20151;-54
2023/01/04 07:49:47;;;;;;;5.40;4.22;;;5.90;72.90;;;;;;5022266;28;20567;-51
2023/01/04 07:52:13;;;;;;;6.03;4.20;;;5.90;72.80;;;;;;5012171;28;20025;-56
2023/01/04 07:54:39;;;;;;;5.70;4.40;;;5.90;72.70;;;;;;5012280;28;20040;-57
2023/01/04 07:57:04;;;;;;;5.40;4.47;;;6.00;72.50;;;;;;5015469;28;20514;-55
2023/01/04 07:59:30;;;;;;;4.63;4.10;;;6.00;72.60;;;;;;5014625;28;20031;-53
2023/01/04 08:01:56;;;;;;;4.30;3.90;;;6.00;72.50;;;;;;5010535;28;20034;-58
2023/01/04 08:04:23;;;;;;;5.45;4.07;;;6.00;72.50;;;;;;5010063;28;20038;-53
2023/01/04 08:06:49;;;;;;;5.78;4.30;;;6.00;72.40;;;;;;5002673;28;20065;-55
2023/01/04 08:09:16;;;;;;;6.20;4.60;;;6.10;72.50;;;;;;5004150;28;20036;-56
2023/01/04 08:11:42;;;;;;;5.10;4.22;;;6.10;72.40;;;;;;5010104;28;20033;-53
2023/01/04 08:14:08;;;;;;;5.32;4.47;;;6.20;72.40;;;;;;5017804;28;20041;-54
2023/01/04 08:16:36;;;;;;;4.55;4.07;;;6.20;72.10;;;;;;5010115;28;20349;-56
2023/01/04 08:19:04;;;;;;;6.10;4.45;;;6.30;72.10;;;;;;5007357;28;20045;-49
2023/01/04 08:21:32;;;;;;;4.88;3.78;;;6.30;71.90;;;;;;5008156;28;20032;-49
2023/01/04 08:23:57;;;;;;;6.13;4.03;;;6.30;71.90;;;;;;5011774;28;20080;-52
2023/01/04 08:26:23;;;;;;;4.93;3.88;;;6.40;72.00;;;;;;5004614;28;20640;-56
2023/01/04 08:28:50;;;;;;;6.10;4.32;;;6.50;71.80;;;;;;5007564;28;20041;-52
2023/01/04 08:31:25;;;;;;;5.63;4.10;;;6.50;71.60;;;;;;5011032;28;20042;-53
2023/01/04 08:33:52;;;;;;;4.20;3.53;;;6.50;71.60;;;;;;5008378;28;20029;-51
2023/01/04 08:36:25;;;;;;;4.93;4.00;;;6.50;71.40;;;;;;5011921;28;20084;-52
2023/01/04 08:39:03;;;;;;;4.90;4.00;;;6.50;71.60;;;;;;5004126;28;20045;-46
2023/01/04 08:41:31;;;;;;;6.18;3.95;;;6.60;71.50;;;;;;5008861;28;20034;-55
2023/01/04 08:43:56;;;;;;;4.53;3.92;;;6.60;71.40;;;;;;4989851;28;20041;-54
2023/01/04 08:46:22;;;;;;;5.13;4.10;;;6.60;71.20;;;;;;5008357;28;20480;-49
2023/01/04 08:48:50;;;;;;;4.32;3.80;;;6.60;71.00;;;;;;4998651;28;20087;-57
2023/01/04 08:51:15;;;;;;;5.47;4.25;;;6.70;70.90;;;;;;5015369;28;20034;-55
2023/01/04 08:53:42;;;;;;;4.95;4.05;;;6.70;70.80;;;;;;5009270;28;20037;-56
2023/01/04 08:56:08;;;;;;;7.88;4.30;;;6.80;70.70;;;;;;5001543;28;20742;-54
2023/01/04 08:58:36;;;;;;;6.32;4.03;;;6.80;70.60;;;;;;5013549;28;20992;-54
2023/01/04 09:01:07;;;;;;;4.75;3.80;;;6.90;70.40;;;;;;5018641;28;20040;-50
2023/01/04 09:03:34;;;;;;;5.30;3.95;;;7.00;70.20;;;;;;5005343;28;20057;-52
2023/01/04 09:06:05;;;;;;;6.07;4.80;;;7.00;70.00;;;;;;4996816;28;20091;-52
2023/01/04 09:08:32;;;;;;;;;;;7.10;70.00;;;;;;5007010;28;20045;-58
2023/01/04 09:10:58;;;;;;;4.38;3.35;;;7.00;69.50;;;;;;5006773;28;19913;-50
2023/01/04 09:13:23;;;;;;;4.55;4.03;;;7.10;70.30;;;;;;5007812;28;20049;-53
2023/01/04 09:15:49;;;;;;;6.43;4.38;;;7.20;70.10;;;;;;5005407;28;20065;-48
2023/01/04 09:18:14;;;;;;;4.47;3.53;;;7.20;69.70;;;;;;5004130;28;20152;-52
2023/01/04 09:20:40;;;;;;;5.13;3.67;;;7.20;69.90;;;;;;5010455;28;20029;-54
2023/01/04 09:23:06;;;;;;;4.30;3.90;;;7.20;69.50;;;;;;4997869;28;20069;-57
2023/01/04 09:25:31;;;;;;;5.55;3.95;;;7.30;69.60;;;;;;5006539;28;20037;-51
2023/01/04 09:27:57;;;;;;;5.63;4.43;;;7.30;69.50;;;;;;5003965;28;20930;-57
2023/01/04 09:30:23;;;;;;;6.78;4.30;;;7.30;69.60;;;;;;5010651;28;20132;-55
2023/01/04 09:32:48;;;;;;;4.38;3.70;;;7.40;69.40;;;;;;4996719;28;20037;-50
2023/01/04 09:35:14;;;;;;;5.95;4.30;;;7.40;69.30;;;;;;5004722;28;20064;-53
2023/01/04 09:37:40;;;;;;;4.53;3.63;;;7.50;69.30;;;;;;5007404;28;20404;-55
2023/01/04 09:40:06;;;;;;;5.82;3.80;;;7.50;69.40;;;;;;5004378;28;20030;-53
2023/01/04 09:42:38;;;;;;;4.88;3.95;;;7.50;69.40;;;;;;4999448;28;20087;-52
2023/01/04 09:45:25;;;;;;;5.43;4.30;;;7.50;69.20;;;;;;5006114;28;20025;-55
2023/01/04 09:48:06;;;;;;;4.80;4.07;;;7.60;69.20;;;;;;5003760;28;20029;-54
2023/01/04 09:50:53;;;;;;;6.03;4.20;;;7.60;69.20;;;;;;5008283;28;20702;-50
2023/01/04 09:53:49;;;;;;;5.00;3.50;;;7.60;68.80;;;;;;5009054;28;20779;-55
2023/01/04 09:56:34;;;;;;;5.28;3.92;;;7.60;69.00;;;;;;5006253;28;20037;-54
2023/01/04 09:59:05;;;;;;;8.50;4.57;;;7.60;69.20;;;;;;5011516;28;20392;-54
2023/01/04 10:01:56;;;;;;;4.35;3.95;;;7.50;69.10;;;;;;5002312;28;20526;-53
2023/01/04 10:04:35;;;;;;;5.15;3.80;;;7.60;69.20;;;;;;5010124;28;20484;-58
2023/01/04 10:07:01;;;;;;;4.57;3.72;;;7.60;69.30;;;;;;5001596;28;20103;-56
2023/01/04 10:09:26;;;;;;;5.25;4.40;;;7.60;69.30;;;;;;4998365;28;20030;-50
2023/01/04 10:12:10;;;;;;;6.30;4.85;;;7.60;69.30;;;;;;5019148;28;20749;-51
2023/01/04 10:14:51;;;;;;;6.07;4.28;;;7.70;69.10;;;;;;5008679;28;20052;-57
2023/01/04 10:17:23;;;;;;;4.32;3.78;;;7.70;68.90;;;;;;5006656;28;20026;-55
2023/01/04 10:20:13;;;;;;;5.63;4.22;;;7.70;68.60;;;;;;5005459;28;20029;-54
2023/01/04 10:22:55;;;;;;;5.28;3.78;;;7.70;68.00;;;;;;5004389;28;20029;-56
2023/01/04 10:25:23;;;;;;;5.47;4.13;;;7.70;68.40;;;;;;5005619;28;20076;-54
2023/01/04 10:28:26;;;;;;;5.22;4.00;;;7.60;68.20;;;;;;5001538;28;20048;-56
2023/01/04 10:31:04;;;;;;;3.92;3.15;;;7.60;68.10;;;;;;5009167;28;20030;-55
2023/01/04 10:33:46;;;;;;;3.55;3.15;;;7.60;68.10;;;;;;5012501;28;20581;-55
2023/01/04 10:36:18;;;;;;;3.80;3.00;;;7.60;68.10;;;;;;5006587;28;20041;-55
2023/01/04 10:38:45;;;;;;;3.72;3.22;;;7.60;68.00;;;;;;5010108;28;20026;-56
2023/01/04 10:41:20;;;;;;;4.03;3.38;;;7.60;67.90;;;;;;5006630;28;20037;-57
2023/01/04 10:44:24;;;;;;;4.53;3.60;;;7.60;67.70;;;;;;5013964;28;20034;-52
2023/01/04 10:47:20;;;;;;;5.28;3.40;;;7.60;67.60;;;;;;4970793;28;20072;-55
2023/01/04 10:49:52;;;;;;;3.60;3.17;;;7.60;67.50;;;;;;5005268;28;20042;-58
2023/01/04 10:52:35;;;;;;;5.10;3.72;;;7.70;67.70;;;;;;5014418;28;20032;-59
2023/01/04 10:55:09;;;;;;;4.85;3.53;;;7.70;67.50;;;;;;5011356;28;20052;-54
2023/01/04 10:57:58;;;;;;;4.95;3.55;;;7.70;67.60;;;;;;5013406;28;20060;-58
2023/01/04 11:00:32;;;;;;;5.07;3.35;;;7.70;67.70;;;;;;5015022;28;20037;-55
2023/01/04 11:03:15;;;;;;;5.68;3.55;;;7.70;67.70;;;;;;5022164;28;20030;-51
2023/01/04 11:05:46;;;;;;;5.97;3.75;;;7.70;67.70;;;;;;5021401;28;20119;-55
2023/01/04 11:08:25;;;;;;;5.10;4.10;;;7.70;67.90;;;;;;5015596;28;20038;-53
2023/01/04 11:11:19;;;;;;;4.13;3.67;;;7.70;67.80;;;;;;5026825;28;20021;-55
2023/01/04 11:13:45;;;;;;;4.40;3.70;;;7.70;67.70;;;;;;5015724;28;20029;-53
2023/01/04 11:16:11;;;;;;;4.07;3.63;;;7.70;67.40;;;;;;5016856;28;20037;-55
2023/01/04 11:18:38;;;;;;;5.32;3.70;;;7.70;67.50;;;;;;5010581;28;20250;-57
2023/01/04 11:21:11;;;;;;;4.15;3.70;;;7.70;67.50;;;;;;5003891;28;20037;-55
2023/01/04 11:23:37;;;;;;;4.53;3.22;;;7.80;67.50;;;;;;5014248;28;20088;-55
2023/01/04 11:26:12;;;;;;;4.15;3.22;;;7.80;67.50;;;;;;5012451;28;20123;-53
2023/01/04 11:28:56;;;;;;;4.35;3.47;;;7.80;67.50;;;;;;5022332;28;20017;-55
2023/01/04 11:31:52;;;;;;;4.03;3.40;;;7.80;67.30;;;;;;5010627;28;20018;-56
2023/01/04 11:34:18;;;;;;;4.47;3.70;;;7.80;67.00;;;;;;5009169;28;20060;-58
2023/01/04 11:36:46;;;;;;;4.68;3.42;;;7.80;67.30;;;;;;5010980;28;20030;-51
2023/01/04 11:39:21;;;;;;;4.10;3.70;;;7.80;67.10;;;;;;5010505;28;20468;-57
2023/01/04 11:42:19;;;;;;;4.53;3.38;;;7.90;67.20;;;;;;5013979;28;20026;-57
2023/01/04 11:44:57;;;;;;;3.90;3.08;;;7.90;67.30;;;;;;5003309;28;20056;-56
2023/01/04 11:47:24;;;;;;;3.78;3.30;;;7.90;67.70;;;;;;5018292;28;20108;-58
2023/01/04 11:49:50;;;;;;;5.00;3.80;;;7.90;67.10;;;;;;5018683;28;20036;-57
2023/01/04 11:52:36;;;;;;;3.83;3.35;;;7.90;67.00;;;;;;5001074;28;21336;-59
2023/01/04 11:55:28;;;;;;;4.13;3.40;;;7.90;67.00;;;;;;5017094;28;20033;-57
2023/01/04 11:58:09;;;;;;;4.45;3.05;;;7.90;66.90;;;;;;5004217;28;20396;-58
2023/01/04 12:03:30;;;;;;;4.05;3.42;;;7.80;65.80;;;;;;4975604;27;1285097;-56
2023/01/04 12:05:56;;;;;;;4.18;3.35;;;7.80;66.90;;;;;;5001268;28;20033;-56
2023/01/04 12:08:29;;;;;;;5.85;3.28;;;7.80;67.00;;;;;;4999748;28;20026;-57
2023/01/04 12:10:55;;;;;;;3.63;3.20;;;7.80;67.20;;;;;;4985877;28;21578;-55
2023/01/04 12:13:21;;;;;;;3.67;3.25;;;7.80;67.30;;;;;;4995614;28;20148;-57
2023/01/04 12:16:18;;;;;;;4.22;3.40;;;7.80;67.50;;;;;;4995000;28;20044;-55
2023/01/04 12:18:44;;;;;;;3.83;3.30;;;7.80;67.40;;;;;;5004137;28;20052;-54
2023/01/04 12:21:22;;;;;;;4.78;3.60;;;7.80;67.60;;;;;;5003528;28;20045;-58
2023/01/04 12:23:49;;;;;;;4.25;3.33;;;7.80;67.20;;;;;;4997423;28;20069;-60
2023/01/04 12:26:15;;;;;;;4.85;3.20;;;7.80;67.50;;;;;;4997428;28;20037;-57
2023/01/04 12:28:47;;;;;;;4.53;3.25;;;7.80;67.40;;;;;;4992194;28;20055;-59
2023/01/04 12:31:18;;;;;;;3.97;3.45;;;7.80;67.30;;;;;;4994359;28;20492;-59
2023/01/04 12:33:59;;;;;;;4.43;3.25;;;7.80;67.20;;;;;;4997757;28;20132;-59
2023/01/04 12:36:36;;;;;;;3.90;3.40;;;7.90;67.30;;;;;;5004584;28;20437;-58
2023/01/04 12:39:12;;;;;;;4.55;3.38;;;7.80;67.20;;;;;;5002149;28;20025;-57
2023/01/04 12:41:38;;;;;;;4.88;3.83;;;7.80;67.40;;;;;;4999499;28;20030;-54
2023/01/04 12:44:35;;;;;;;4.72;3.55;;;7.80;67.30;;;;;;5001143;28;20107;-59
2023/01/04 12:50:13;;;;;;;4.35;3.55;;;7.80;67.30;;;;;;5002592;28;20036;-57
2023/01/04 12:52:51;;;;;;;3.78;3.40;;;7.70;67.40;;;;;;4995672;28;20069;-57
2023/01/04 12:55:31;;;;;;;3.67;3.35;;;7.70;67.60;;;;;;4998613;28;20113;-57
2023/01/04 12:58:26;;;;;;;5.03;3.67;;;7.70;67.60;;;;;;4993551;28;20113;-57
2023/01/04 13:00:52;;;;;;;3.70;3.40;;;7.70;67.40;;;;;;4988971;28;20041;-58
2023/01/04 13:03:17;;;;;;;4.93;3.70;;;7.60;67.60;;;;;;4991223;28;20057;-59
2023/01/04 13:05:55;;;;;;;3.70;3.40;;;7.60;67.60;;;;;;5006568;28;20034;-58
2023/01/04 13:08:21;;;;;;;4.90;3.78;;;7.60;67.70;;;;;;4993797;28;20042;-59
2023/01/04 13:10:52;;;;;;;7.28;4.00;;;7.60;67.90;;;;;;4981518;28;20030;-57
2023/01/04 13:13:49;;;;;;;4.10;3.67;;;7.60;68.10;;;;;;4978697;28;21040;-57
2023/01/04 13:16:51;;;;;;;5.60;3.58;;;7.60;67.90;;;;;;4981057;28;20026;-58
2023/01/04 13:19:22;;;;;;;5.65;3.83;;;7.60;67.80;;;;;;4972638;28;20065;-57
2023/01/04 13:21:51;;;;;;;4.20;3.45;;;7.60;68.00;;;;;;4978675;28;20046;-58
2023/01/04 13:24:31;;;;;;;5.13;3.80;;;7.70;68.10;;;;;;4981169;28;20052;-58
2023/01/04 13:27:09;;;;;;;3.80;3.40;;;7.70;68.10;;;;;;4979812;28;20112;-59
2023/01/04 13:29:35;;;;;;;4.65;3.47;;;7.70;67.80;;;;;;4980215;28;20367;-59
2023/01/04 13:32:10;;;;;;;3.95;3.45;;;7.60;67.80;;;;;;4982948;28;20157;-59
2023/01/04 13:34:44;;;;;;;5.10;3.53;;;7.70;67.90;;;;;;4973730;28;20030;-60
2023/01/04 13:37:09;;;;;;;3.90;3.45;;;7.70;68.10;;;;;;4987649;28;20027;-59
2023/01/04 13:39:40;;;;;;;7.03;4.03;;;7.70;68.10;;;;;;4983752;28;20021;-57
2023/01/04 13:42:15;;;;;;;4.97;3.95;;;7.80;67.80;;;;;;4981662;28;20039;-57
2023/01/04 13:45:04;;;;;;;4.55;3.80;;;7.80;67.60;;;;;;4986712;28;20046;-58
2023/01/04 13:47:35;;;;;;;5.88;4.25;;;7.80;67.70;;;;;;4986043;28;20739;-57
2023/01/04 13:50:01;;;;;;;5.22;3.83;;;7.80;68.20;;;;;;4983275;28;20033;-57
2023/01/04 13:52:28;;;;;;;5.18;3.70;;;7.80;67.50;;;;;;4987334;28;20046;-57
2023/01/04 13:55:12;;;;;;;5.57;3.90;;;7.80;67.40;;;;;;4983567;28;20532;-58
2023/01/04 13:57:38;;;;;;;5.80;3.80;;;7.80;67.50;;;;;;4980212;28;20712;-59
2023/01/04 14:00:05;;;;;;;3.78;3.38;;;7.80;67.50;;;;;;4972427;28;20034;-59
2023/01/04 14:02:33;;;;;;;3.75;3.13;;;7.80;67.20;;;;;;4969971;28;20198;-58